Details for Norwegian Air Shuttle at EFHK




Go Back


Latest METAR
Local Time

EFHK 221050Z 22023KT 9999 VCSH FEW022 SCT030CB BKN200 13/09 Q0996 NOSIG
22/09/2018, 14:07:05

Description
Results
Norwegian Air Shuttle Logo
Number of Pilots based at EFHK
0 Pilots Based here
Number of Norwegian Air Shuttle Flights Departed from EFHK
3 Flights Departed
Number of Norwegian Air Shuttle Flights Arrived at EFHK
2 Flights Arrived
Number of Norwegian Air Shuttle Schedules Departing from EFHK
5 Schedules
Number of Norwegian Air Shuttle Schedules Arriving at EFHK
3 Schedules
Number of Norwegian Air Shuttle Schedules Departing from EFHK availible today
1 Schedules Today
Number of Norwegian Air Shuttle Schedules Arriving at EFHK availible today
1 Schedules Today
Average Landing Rate at EFHK
-189 fpm
Norwegian Air Shuttle Average Landing Rate at EFHK
-156 fpm
Total Fuel Purchased at EFHK by Norwegian Air Shuttle
11,015.04 kgs / 24,283.76 lbs

Pilots Based at EFHK


Pilot ID
Pilot Name
Pilot Rank
No. of Flights
No. of Flying Hours
There are no pilots assigned to this hub!   Will you be the first?
Content